createdAt,value
2018-12-19T00:01:17.208Z,36.20
2018-12-19T00:03:44.711Z,36.50
2018-12-19T00:06:12.238Z,36.33
2018-12-19T00:08:39.744Z,33.77
2018-12-19T00:11:07.271Z,34.83
2018-12-19T00:13:34.771Z,37.60
2018-12-19T00:16:02.267Z,35.37
2018-12-19T00:18:29.799Z,34.90
2018-12-19T00:20:57.303Z,36.37
2018-12-19T00:23:24.834Z,37.80
2018-12-19T00:25:52.338Z,35.53
2018-12-19T00:28:19.867Z,36.17
2018-12-19T00:30:47.368Z,32.23
2018-12-19T00:33:14.900Z,34.50
2018-12-19T00:35:42.402Z,32.87
2018-12-19T00:38:09.935Z,33.50
2018-12-19T00:40:37.435Z,34.93
2018-12-19T00:43:04.967Z,33.50
2018-12-19T00:45:32.459Z,32.33
2018-12-19T00:48:00.006Z,35.07
2018-12-19T00:50:27.603Z,34.77
2018-12-19T00:52:55.136Z,39.10
2018-12-19T00:55:22.631Z,32.77
2018-12-19T00:57:50.159Z,35.00
2018-12-19T01:00:17.661Z,35.60
2018-12-19T01:02:45.187Z,33.60
2018-12-19T01:05:12.771Z,38.87
2018-12-19T01:07:40.303Z,37.37
2018-12-19T01:10:07.887Z,34.30
2018-12-19T01:12:35.420Z,36.30
2018-12-19T01:15:03.007Z,31.90
2018-12-19T01:17:30.549Z,33.50
2018-12-19T01:19:58.051Z,35.80
2018-12-19T01:22:25.583Z,37.13
2018-12-19T01:24:53.087Z,32.30
2018-12-19T01:27:20.620Z,30.40
2018-12-19T01:29:48.118Z,36.33
2018-12-19T01:32:15.649Z,33.40
2018-12-19T01:34:43.155Z,35.10
2018-12-19T01:37:10.683Z,35.40
2018-12-19T01:39:38.183Z,35.70
2018-12-19T01:42:05.718Z,38.77
2018-12-19T01:44:33.215Z,32.67
2018-12-19T01:47:00.751Z,36.60
2018-12-19T01:49:28.255Z,36.67
2018-12-19T01:51:55.752Z,34.87
2018-12-19T01:54:23.280Z,37.13
2018-12-19T01:56:50.779Z,36.40
2018-12-19T01:59:18.312Z,37.97
2018-12-19T02:01:45.812Z,38.53
2018-12-19T02:04:13.339Z,38.80
2018-12-19T02:06:40.835Z,36.13
2018-12-19T02:09:08.446Z,34.10
2018-12-19T02:11:35.944Z,35.90
2018-12-19T02:14:03.551Z,37.73
2018-12-19T02:16:31.051Z,41.63
2018-12-19T02:18:58.581Z,35.30
2018-12-19T02:21:26.091Z,35.90
2018-12-19T02:23:53.628Z,34.30
2018-12-19T02:26:21.127Z,37.43
2018-12-19T02:28:48.664Z,38.77
2018-12-19T02:31:16.164Z,38.33
2018-12-19T02:33:43.861Z,32.20
2018-12-19T02:36:11.445Z,36.60
2018-12-19T02:38:38.942Z,38.23
2018-12-19T02:41:06.475Z,34.77
2018-12-19T02:43:33.982Z,38.33
2018-12-19T02:46:01.514Z,35.37
2018-12-19T02:48:29.016Z,39.90
2018-12-19T02:50:56.627Z,36.27
2018-12-19T02:53:24.201Z,36.33
2018-12-19T02:55:51.863Z,38.00
2018-12-19T02:58:19.358Z,37.70
2018-12-19T03:00:46.851Z,36.67
2018-12-19T03:03:14.380Z,41.40
2018-12-19T03:05:41.885Z,40.63
2018-12-19T03:08:09.415Z,40.17
2018-12-19T03:10:36.915Z,35.30
2018-12-19T03:13:04.411Z,43.13
2018-12-19T03:15:31.947Z,41.00
2018-12-19T03:17:59.459Z,36.23
2018-12-19T03:20:27.107Z,39.60
2018-12-19T03:22:54.607Z,37.67
2018-12-19T03:25:22.107Z,35.17
2018-12-19T03:27:49.646Z,44.40
2018-12-19T03:30:17.145Z,62.40
2018-12-19T03:32:44.661Z,44.57
2018-12-19T03:35:12.199Z,36.97
2018-12-19T03:37:39.699Z,39.10
2018-12-19T03:40:07.316Z,44.67
2018-12-19T03:42:34.815Z,42.50
2018-12-19T04:07:47.065Z,38.33
2018-12-19T04:10:14.589Z,43.60
2018-12-19T04:12:42.089Z,40.73
2018-12-19T04:15:09.604Z,40.23
2018-12-19T04:17:37.098Z,41.27
2018-12-19T04:20:04.884Z,41.27
2018-12-19T04:22:32.384Z,36.93
2018-12-19T04:24:59.926Z,42.50
2018-12-19T04:27:27.414Z,36.63
2018-12-19T04:29:54.902Z,43.50
2018-12-19T04:32:22.795Z,37.37
2018-12-19T04:34:50.286Z,37.23
2018-12-19T04:37:17.806Z,38.70
2018-12-19T04:39:45.299Z,37.63
2018-12-19T04:42:12.825Z,38.60
2018-12-19T04:44:40.533Z,39.00
2018-12-19T04:47:08.050Z,39.97
2018-12-19T04:49:35.651Z,40.47
2018-12-19T04:52:03.171Z,41.00
2018-12-19T04:54:30.663Z,38.30
2018-12-19T04:56:58.154Z,42.10
2018-12-19T04:59:25.673Z,39.93
2018-12-19T05:01:53.174Z,37.33
2018-12-19T05:04:20.701Z,41.33
2018-12-19T05:06:48.199Z,40.20
2018-12-19T05:09:15.714Z,38.20
2018-12-19T05:11:43.286Z,45.77
2018-12-19T05:14:10.802Z,39.80
2018-12-19T05:16:38.286Z,39.60
2018-12-19T05:19:05.806Z,40.43
2018-12-19T05:21:33.298Z,42.47
2018-12-19T05:24:00.822Z,37.13
2018-12-19T05:26:28.321Z,38.90
2018-12-19T05:28:55.842Z,36.10
2018-12-19T05:31:23.334Z,46.10
2018-12-19T05:33:50.856Z,40.67
2018-12-19T05:36:18.346Z,39.27
2018-12-19T05:38:45.867Z,38.20
2018-12-19T05:41:13.359Z,39.77
2018-12-19T05:43:40.888Z,45.63
2018-12-19T05:46:08.382Z,40.97
2018-12-19T05:48:35.882Z,39.87
2018-12-19T05:51:03.397Z,41.80
2018-12-19T05:53:30.892Z,40.40
2018-12-19T05:55:58.418Z,39.03
2018-12-19T05:58:25.907Z,42.77
2018-12-19T06:00:53.433Z,38.53
2018-12-19T06:03:20.923Z,41.03
2018-12-19T06:05:48.443Z,41.80
2018-12-19T06:08:15.934Z,39.83
2018-12-19T06:10:43.450Z,46.37
2018-12-19T06:13:10.947Z,45.50
2018-12-19T06:15:38.470Z,41.50
2018-12-19T06:18:05.962Z,44.30
2018-12-19T06:20:33.486Z,42.30
2018-12-19T06:23:00.982Z,42.23
2018-12-19T06:25:28.513Z,42.37
2018-12-19T06:27:56.187Z,42.80
2018-12-19T06:30:23.958Z,42.60
2018-12-19T06:32:51.849Z,44.33
2018-12-19T06:35:19.333Z,43.37
2018-12-19T06:37:46.850Z,46.63
2018-12-19T06:40:14.338Z,41.33
2018-12-19T06:42:41.942Z,40.70
2018-12-19T06:45:09.437Z,42.93
2018-12-19T06:47:36.963Z,43.93
2018-12-19T06:50:06.119Z,46.13
2018-12-19T06:52:33.637Z,45.40
2018-12-19T06:55:01.126Z,45.53
2018-12-19T06:57:28.648Z,45.63
2018-12-19T06:59:56.138Z,42.60
2018-12-19T07:02:23.659Z,43.47
2018-12-19T07:04:51.155Z,42.40
2018-12-19T07:07:18.759Z,43.43
2018-12-19T07:09:46.247Z,46.57
2018-12-19T07:12:13.769Z,44.17
2018-12-19T07:14:41.260Z,49.23
2018-12-19T07:17:08.782Z,43.07
2018-12-19T07:19:36.270Z,45.00
2018-12-19T07:22:03.803Z,42.43
2018-12-19T07:24:31.289Z,44.60
2018-12-19T07:26:58.782Z,52.50
2018-12-19T07:29:26.298Z,44.90
2018-12-19T07:31:53.785Z,42.77
2018-12-19T07:34:21.301Z,48.33
2018-12-19T07:36:48.794Z,45.60
2018-12-19T07:39:16.666Z,44.33
2018-12-19T07:41:44.449Z,46.13
2018-12-19T07:44:11.966Z,47.90
2018-12-19T07:46:39.455Z,47.13
2018-12-19T07:49:06.973Z,44.20
2018-12-19T07:51:34.463Z,45.53
2018-12-19T07:54:01.990Z,42.97
2018-12-19T07:56:29.478Z,44.20
2018-12-19T07:58:56.975Z,48.40
2018-12-19T08:01:24.494Z,45.73
2018-12-19T08:03:51.990Z,45.63
2018-12-19T08:06:19.510Z,50.97
2018-12-19T08:08:47.003Z,47.33
2018-12-19T08:11:14.523Z,47.73
2018-12-19T08:13:42.006Z,48.47
2018-12-19T08:16:09.529Z,46.37
2018-12-19T08:18:37.090Z,49.10
2018-12-19T08:21:04.606Z,49.53
2018-12-19T08:23:32.094Z,52.63
2018-12-19T08:25:59.618Z,50.87
2018-12-19T08:28:27.111Z,54.10
2018-12-19T08:30:54.626Z,48.43
2018-12-19T08:33:22.402Z,47.20
2018-12-19T08:35:50.102Z,50.80
2018-12-19T08:38:17.594Z,51.73
2018-12-19T08:40:45.110Z,52.03
2018-12-19T08:43:12.606Z,52.60
2018-12-19T08:45:40.509Z,53.40
2018-12-19T08:48:07.998Z,54.13
2018-12-19T08:50:35.514Z,48.27
2018-12-19T08:53:03.007Z,53.37
2018-12-19T08:55:30.526Z,58.93
2018-12-19T08:57:58.017Z,49.00
2018-12-19T09:00:25.615Z,55.70
2018-12-19T09:02:53.109Z,53.97
2018-12-19T09:05:20.631Z,49.67
2018-12-19T09:07:48.122Z,52.83
2018-12-19T09:10:15.650Z,54.90
2018-12-19T09:12:43.146Z,53.53
2018-12-19T09:15:10.663Z,54.90
2018-12-19T09:17:38.157Z,52.63
2018-12-19T09:20:06.546Z,57.53
2018-12-19T09:22:34.038Z,59.17
2018-12-19T09:25:01.526Z,54.23
2018-12-19T09:27:29.047Z,52.00
2018-12-19T09:29:56.529Z,57.40
2018-12-19T09:32:24.050Z,53.10
2018-12-19T09:34:51.539Z,55.57
2018-12-19T09:37:19.055Z,55.57
2018-12-19T09:39:46.545Z,51.70
2018-12-19T09:42:14.062Z,52.87
2018-12-19T09:44:41.554Z,56.17
2018-12-19T09:47:09.074Z,55.50
2018-12-19T09:49:36.562Z,55.53
2018-12-19T09:52:04.094Z,52.67
2018-12-19T09:54:31.585Z,53.27
2018-12-19T09:56:59.106Z,58.43
2018-12-19T09:59:26.598Z,54.60
2018-12-19T10:01:54.266Z,52.60
2018-12-19T10:04:21.844Z,52.57
2018-12-19T10:06:49.394Z,54.50
2018-12-19T10:09:16.913Z,52.67
2018-12-19T10:11:44.406Z,53.50
2018-12-19T10:14:11.921Z,49.77
2018-12-19T10:16:39.414Z,57.73
2018-12-19T10:19:06.934Z,59.17
2018-12-19T10:21:34.905Z,52.83
2018-12-19T10:24:02.431Z,53.33
2018-12-19T10:26:29.918Z,57.43
2018-12-19T10:28:57.442Z,52.90
2018-12-19T10:31:25.105Z,56.27
2018-12-19T10:33:52.631Z,61.10
2018-12-19T10:36:22.099Z,54.30
2018-12-19T10:38:49.594Z,68.30
2018-12-19T10:41:17.235Z,59.20
2018-12-19T10:43:44.727Z,56.33
2018-12-19T10:46:12.242Z,59.63
2018-12-19T10:48:39.737Z,57.63
2018-12-19T10:51:07.258Z,57.93
2018-12-19T10:53:34.757Z,61.93
2018-12-19T10:56:02.277Z,60.30
2018-12-19T10:58:29.770Z,62.50
2018-12-19T11:00:59.672Z,56.60
2018-12-19T11:03:27.282Z,56.67
2018-12-19T11:05:55.734Z,54.10
2018-12-19T11:08:23.223Z,56.00
2018-12-19T11:10:50.738Z,59.27
2018-12-19T11:13:18.231Z,66.43
2018-12-19T11:15:45.750Z,56.70
2018-12-19T11:18:13.242Z,58.97
2018-12-19T11:20:40.762Z,59.03
2018-12-19T11:23:08.250Z,64.00
2018-12-19T11:25:35.775Z,63.13
2018-12-19T11:28:03.261Z,62.60
2018-12-19T11:30:30.750Z,63.43
2018-12-19T11:32:58.266Z,57.20
2018-12-19T11:35:25.789Z,61.00
2018-12-19T11:37:53.276Z,57.50
2018-12-19T11:40:20.794Z,58.97
2018-12-19T11:42:48.283Z,61.70
2018-12-19T11:45:15.802Z,60.70
2018-12-19T11:47:43.289Z,62.47
2018-12-19T11:50:10.809Z,54.63
2018-12-19T11:52:38.314Z,56.43
2018-12-19T11:55:06.084Z,62.50
2018-12-19T11:57:34.450Z,51.80
2018-12-19T12:00:02.205Z,53.43
2018-12-19T12:02:29.699Z,59.83
2018-12-19T12:04:57.218Z,56.77
2018-12-19T12:07:24.755Z,58.73
2018-12-19T12:09:52.350Z,63.77
2018-12-19T12:12:19.837Z,52.13
2018-12-19T12:14:47.358Z,52.03
2018-12-19T12:17:14.850Z,52.70
2018-12-19T12:19:42.495Z,50.90
2018-12-19T12:22:09.990Z,51.57
2018-12-19T12:24:37.510Z,52.77
2018-12-19T12:27:04.994Z,61.33
2018-12-19T12:29:32.524Z,49.53
2018-12-19T12:32:00.017Z,54.27
2018-12-19T12:34:27.538Z,52.07
2018-12-19T12:36:55.031Z,57.37
2018-12-19T12:39:22.555Z,55.03
2018-12-19T12:41:52.484Z,63.53
2018-12-19T12:44:19.599Z,51.93
2018-12-19T12:46:47.170Z,53.33
2018-12-19T12:49:14.667Z,53.80
2018-12-19T12:51:42.187Z,50.17
2018-12-19T12:54:09.679Z,55.83
2018-12-19T12:56:37.203Z,54.90
2018-12-19T12:59:04.707Z,53.70
2018-12-19T13:01:32.306Z,55.27
2018-12-19T13:03:59.798Z,54.63
2018-12-19T13:06:27.400Z,60.40
2018-12-19T13:08:54.894Z,53.67
2018-12-19T13:11:22.419Z,58.10
2018-12-19T13:13:49.920Z,55.90
2018-12-19T13:16:17.443Z,55.73
2018-12-19T13:18:44.935Z,59.93
2018-12-19T13:21:12.454Z,59.77
2018-12-19T13:23:39.942Z,54.83
2018-12-19T13:26:07.470Z,59.77
2018-12-19T13:28:34.967Z,63.17
2018-12-19T13:31:02.463Z,68.67
2018-12-19T13:33:29.986Z,59.40
2018-12-19T13:35:57.498Z,62.50
2018-12-19T13:38:25.025Z,58.67
2018-12-19T13:40:52.519Z,63.77
2018-12-19T13:43:20.047Z,61.57
2018-12-19T13:45:47.543Z,56.97
2018-12-19T13:48:15.148Z,63.60
2018-12-19T13:50:42.644Z,62.80
2018-12-19T13:53:10.170Z,64.97
2018-12-19T13:55:37.663Z,61.50
2018-12-19T13:58:07.094Z,60.63
2018-12-19T14:00:34.699Z,68.43
2018-12-19T14:03:02.227Z,61.47
2018-12-19T14:05:29.719Z,64.50
2018-12-19T14:07:57.521Z,64.13
2018-12-19T14:10:25.015Z,58.30
2018-12-19T14:12:52.534Z,58.63
2018-12-19T14:15:21.404Z,63.37
2018-12-19T14:17:48.925Z,61.57
2018-12-19T14:20:16.421Z,64.43
2018-12-19T14:22:43.942Z,63.30
2018-12-19T14:25:11.435Z,61.00
2018-12-19T14:27:38.962Z,71.00
2018-12-19T14:30:08.511Z,75.83
2018-12-19T14:32:36.035Z,70.27
2018-12-19T14:35:03.786Z,67.30
2018-12-19T14:37:31.314Z,63.27
2018-12-19T14:39:58.806Z,67.67
2018-12-19T14:42:26.331Z,65.40
2018-12-19T14:44:53.824Z,65.13
2018-12-19T14:47:21.360Z,64.33
2018-12-19T14:49:48.860Z,70.50
2018-12-19T14:52:16.350Z,62.60
2018-12-19T14:54:43.871Z,64.13
2018-12-19T14:57:11.367Z,67.73
2018-12-19T14:59:38.886Z,68.30
2018-12-19T15:02:06.390Z,62.47
2018-12-19T15:04:33.910Z,67.53
2018-12-19T15:07:01.402Z,69.83
2018-12-19T15:09:28.923Z,74.53
2018-12-19T15:11:56.419Z,73.03
2018-12-19T15:14:23.947Z,71.13
2018-12-19T15:16:51.439Z,74.87
2018-12-19T15:19:18.962Z,67.40
2018-12-19T15:21:46.451Z,76.33
2018-12-19T15:24:13.976Z,68.97
2018-12-19T15:26:41.474Z,66.50
2018-12-19T15:29:09.070Z,71.87
2018-12-19T15:31:36.559Z,67.43
2018-12-19T15:34:04.079Z,64.37
2018-12-19T15:36:31.651Z,71.40
2018-12-19T15:38:59.175Z,68.87
2018-12-19T15:41:26.678Z,70.63
2018-12-19T15:43:54.203Z,67.93
2018-12-19T15:46:21.695Z,63.67
2018-12-19T15:48:49.221Z,64.67
2018-12-19T15:51:16.719Z,68.10
2018-12-19T15:53:44.211Z,67.90
2018-12-19T15:56:11.731Z,68.67
2018-12-19T15:58:39.230Z,66.53
2018-12-19T16:01:06.752Z,70.63
2018-12-19T16:03:34.251Z,71.47
2018-12-19T16:06:01.773Z,67.47
2018-12-19T16:08:29.275Z,68.67
2018-12-19T16:10:56.802Z,72.83
2018-12-19T16:13:24.294Z,64.63
2018-12-19T16:15:51.815Z,64.47
2018-12-19T16:18:19.307Z,77.53
2018-12-19T16:20:46.827Z,64.57
2018-12-19T16:23:14.321Z,68.43
2018-12-19T16:25:41.851Z,67.17
2018-12-19T16:28:09.346Z,69.13
2018-12-19T16:30:36.844Z,67.03
2018-12-19T16:33:04.371Z,67.53
2018-12-19T16:35:31.867Z,68.13
2018-12-19T16:37:59.391Z,82.70
2018-12-19T16:40:26.890Z,77.67
2018-12-19T16:42:54.416Z,69.80
2018-12-19T16:45:21.907Z,73.17
2018-12-19T16:47:49.430Z,66.03
2018-12-19T16:50:17.054Z,66.90
2018-12-19T16:52:44.655Z,68.10
2018-12-19T16:55:12.148Z,68.13
2018-12-19T16:57:39.639Z,62.10
2018-12-19T17:00:09.010Z,74.30
2018-12-19T17:02:36.506Z,74.60
2018-12-19T17:05:05.387Z,70.63
2018-12-19T17:07:32.883Z,67.77
2018-12-19T17:10:00.403Z,73.73
2018-12-19T17:12:28.014Z,69.33
2018-12-19T17:14:55.596Z,79.13
2018-12-19T17:17:23.143Z,77.03
2018-12-19T17:19:50.663Z,68.47
2018-12-19T17:22:18.156Z,75.33
2018-12-19T17:24:45.678Z,69.10
2018-12-19T17:27:13.180Z,67.13
2018-12-19T17:29:40.702Z,65.90
2018-12-19T17:32:08.373Z,68.83
2018-12-19T17:34:35.870Z,71.53
2018-12-19T17:37:03.391Z,60.50
2018-12-19T17:39:30.883Z,59.13
2018-12-19T17:41:58.407Z,63.53
2018-12-19T17:44:25.899Z,61.50
2018-12-19T17:46:53.418Z,62.67
2018-12-19T17:49:20.906Z,69.47
2018-12-19T17:51:48.434Z,68.07
2018-12-19T17:54:15.926Z,60.80
2018-12-19T17:56:43.446Z,62.47
2018-12-19T17:59:10.934Z,65.37
2018-12-19T18:01:38.476Z,61.20
2018-12-19T18:04:05.986Z,68.00
2018-12-19T18:06:33.480Z,68.20
2018-12-19T18:09:01.778Z,66.23
2018-12-19T18:11:29.279Z,66.23
2018-12-19T18:13:56.883Z,58.20
2018-12-19T18:16:24.450Z,62.70
2018-12-19T18:18:51.974Z,63.17
2018-12-19T18:21:19.467Z,58.00
2018-12-19T18:23:47.027Z,54.97
2018-12-19T18:26:14.514Z,63.67
2018-12-19T18:28:42.040Z,59.10
2018-12-19T18:31:09.531Z,61.80
2018-12-19T18:33:37.195Z,61.23
2018-12-19T18:36:04.686Z,66.97
2018-12-19T18:38:32.254Z,72.73
2018-12-19T18:40:59.782Z,58.73
2018-12-19T18:43:27.275Z,99.17
2018-12-19T18:45:54.795Z,75.87
2018-12-19T18:48:22.282Z,59.67
2018-12-19T18:50:49.812Z,59.23
2018-12-19T18:53:17.307Z,59.37
2018-12-19T18:55:44.830Z,67.37
2018-12-19T18:58:12.329Z,59.40
2018-12-19T19:00:39.854Z,59.37
2018-12-19T19:03:07.475Z,56.90
2018-12-19T19:05:35.027Z,62.13
2018-12-19T19:08:02.619Z,60.10
2018-12-19T19:10:30.231Z,57.60
2018-12-19T19:12:57.723Z,60.60
2018-12-19T19:15:25.214Z,63.73
2018-12-19T19:17:52.734Z,67.63
2018-12-19T19:20:20.227Z,69.07
2018-12-19T19:22:47.747Z,65.73
2018-12-19T19:25:15.395Z,66.30
2018-12-19T19:27:42.914Z,58.47
2018-12-19T19:30:10.411Z,60.60
2018-12-19T19:32:37.934Z,64.83
2018-12-19T19:35:05.782Z,64.80
2018-12-19T19:37:33.759Z,63.97
2018-12-19T19:40:01.331Z,61.77
2018-12-19T19:42:28.943Z,81.60
2018-12-19T19:44:56.436Z,67.33
2018-12-19T19:47:23.963Z,65.47
2018-12-19T19:49:51.461Z,67.07
2018-12-19T19:52:18.980Z,62.73
2018-12-19T19:54:46.476Z,60.07
2018-12-19T19:57:14.852Z,65.27
2018-12-19T19:59:42.342Z,94.57
2018-12-19T20:02:09.867Z,75.87
2018-12-19T20:04:37.358Z,79.27
2018-12-19T20:07:04.887Z,72.83
2018-12-19T20:09:32.375Z,96.50
2018-12-19T20:11:59.942Z,86.57
2018-12-19T20:14:27.470Z,63.00
2018-12-19T20:17:01.579Z,63.90
2018-12-19T20:19:29.485Z,76.23
2018-12-19T20:21:56.978Z,69.83
2018-12-19T20:24:24.498Z,69.03
2018-12-19T20:26:51.994Z,68.83
2018-12-19T20:29:19.658Z,63.67
2018-12-19T20:31:47.207Z,64.20
2018-12-19T20:34:14.815Z,68.77
2018-12-19T20:36:42.310Z,56.57
2018-12-19T20:39:09.835Z,61.90
2018-12-19T20:41:37.326Z,71.93
2018-12-19T20:44:04.846Z,64.43
2018-12-19T20:46:32.338Z,62.10
2018-12-19T20:48:59.866Z,64.53
2018-12-19T20:51:27.363Z,60.63
2018-12-19T20:53:55.366Z,62.70
2018-12-19T20:56:22.859Z,64.13
2018-12-19T20:58:50.507Z,60.93
2018-12-19T21:01:17.999Z,66.63
2018-12-19T21:03:45.531Z,62.80
2018-12-19T21:06:13.110Z,64.87
2018-12-19T21:08:40.630Z,63.97
2018-12-19T21:11:08.123Z,60.40
2018-12-19T21:13:35.641Z,61.33
2018-12-19T21:16:03.138Z,56.13
2018-12-19T21:18:36.511Z,56.73
2018-12-19T21:21:04.011Z,59.97
2018-12-19T21:23:31.530Z,58.27
2018-12-19T21:25:59.029Z,70.10
2018-12-19T21:28:26.563Z,80.17
2018-12-19T21:30:54.059Z,69.67
2018-12-19T21:33:21.583Z,75.90
2018-12-19T21:35:49.164Z,82.07
2018-12-19T21:38:16.694Z,78.93
2018-12-19T21:40:44.291Z,72.37
2018-12-19T21:43:11.912Z,73.83
2018-12-19T21:45:39.406Z,72.67
2018-12-19T21:48:06.996Z,64.00
2018-12-19T21:50:34.657Z,75.03
2018-12-19T21:53:02.270Z,72.27
2018-12-19T21:55:29.767Z,77.93
2018-12-19T21:57:57.367Z,73.43
2018-12-19T22:00:24.939Z,67.27
2018-12-19T22:02:52.574Z,66.67
2018-12-19T22:05:20.092Z,66.83
2018-12-19T22:07:47.782Z,67.90
2018-12-19T22:10:15.331Z,71.03
2018-12-19T22:12:42.918Z,66.70
2018-12-19T22:15:10.521Z,68.80
2018-12-19T22:17:43.782Z,71.40
2018-12-19T22:20:11.281Z,59.37
2018-12-19T22:22:38.906Z,68.60
2018-12-19T22:25:06.606Z,70.33
2018-12-19T22:27:34.098Z,67.23
2018-12-19T22:30:01.614Z,65.87
2018-12-19T22:32:29.106Z,70.00
2018-12-19T22:34:56.635Z,69.10
2018-12-19T22:37:24.130Z,73.53
2018-12-19T22:39:51.655Z,66.53
2018-12-19T22:42:19.178Z,70.53
2018-12-19T22:44:46.814Z,64.07
2018-12-19T22:47:14.411Z,64.53
2018-12-19T22:49:42.025Z,62.83
2018-12-19T22:52:09.641Z,61.40
2018-12-19T22:54:37.195Z,59.30
2018-12-19T22:57:04.786Z,62.77
2018-12-19T22:59:32.350Z,63.73
2018-12-19T23:05:04.859Z,53.50
2018-12-19T23:07:32.354Z,47.70
2018-12-19T23:09:59.887Z,47.63
2018-12-19T23:12:27.399Z,47.00
2018-12-19T23:14:54.999Z,46.27
2018-12-19T23:17:28.297Z,46.27
2018-12-19T23:19:55.795Z,49.43
2018-12-19T23:22:23.335Z,56.23
2018-12-19T23:24:50.834Z,48.60
2018-12-19T23:27:18.380Z,44.87
2018-12-19T23:29:46.162Z,50.20
2018-12-19T23:32:15.871Z,46.07
2018-12-19T23:34:43.415Z,47.27
2018-12-19T23:37:10.938Z,48.50
2018-12-19T23:39:38.440Z,49.77
2018-12-19T23:42:06.151Z,53.50
2018-12-19T23:44:33.787Z,50.70
2018-12-19T23:47:01.608Z,48.87
2018-12-19T23:49:29.284Z,51.90
2018-12-19T23:51:56.848Z,52.00
2018-12-19T23:54:29.015Z,57.13
2018-12-19T23:56:53.913Z,48.33
2018-12-19T23:59:21.509Z,58.57
